createdAt,value
2023-11-16T00:00:34.288Z,96522.66
2023-11-16T00:03:07.103Z,96517.59
2023-11-16T00:05:37.390Z,96512.78
2023-11-16T00:08:08.726Z,96516.53
2023-11-16T00:10:38.567Z,96519.75
2023-11-16T00:13:06.665Z,96516.53
2023-11-16T00:15:34.426Z,96515.19
2023-11-16T00:18:05.673Z,96512.75
2023-11-16T00:20:38.917Z,96513.56
2023-11-16T00:23:05.780Z,96515.47
2023-11-16T00:25:32.651Z,96515.47
2023-11-16T00:28:00.733Z,96518.09
2023-11-16T00:30:28.013Z,96517.03
2023-11-16T00:32:54.973Z,96513.88
2023-11-16T00:35:22.462Z,96507.97
2023-11-16T00:37:53.160Z,96505.28
2023-11-16T00:40:20.613Z,96504.72
2023-11-16T00:42:48.157Z,96507.44
2023-11-16T00:45:14.966Z,96506.34
2023-11-16T00:47:41.880Z,96500.38
2023-11-16T00:50:09.325Z,96503.06
2023-11-16T00:52:36.284Z,96501.25
2023-11-16T00:55:06.066Z,96497.16
2023-11-16T00:57:32.977Z,96499.28
2023-11-16T00:59:59.882Z,96507.91
2023-11-16T01:02:26.735Z,96508.47
2023-11-16T01:04:53.467Z,96506.34
2023-11-16T01:07:20.911Z,96505.56
2023-11-16T01:09:47.650Z,96508.97
2023-11-16T01:12:17.602Z,96504.50
2023-11-16T01:14:45.840Z,96500.25
2023-11-16T01:17:23.424Z,96497.28
2023-11-16T01:19:51.040Z,96500.75
2023-11-16T01:22:18.133Z,96495.13
2023-11-16T01:24:46.241Z,96498.88
2023-11-16T01:27:17.440Z,96491.94
2023-11-16T01:29:45.474Z,96490.31
2023-11-16T01:32:15.049Z,96483.38
2023-11-16T01:34:43.867Z,96483.38
2023-11-16T01:37:11.809Z,96486.59
2023-11-16T01:39:40.587Z,96491.41
2023-11-16T01:42:09.213Z,96501.56
2023-11-16T01:44:36.518Z,96500.53
2023-11-16T01:47:07.336Z,96503.19
2023-11-16T01:49:34.334Z,96494.38
2023-11-16T01:52:01.155Z,96499.97
2023-11-16T01:54:27.993Z,96505.06
2023-11-16T01:56:55.124Z,96508.00
2023-11-16T01:59:22.241Z,96499.72
2023-11-16T02:01:49.256Z,96493.56
2023-11-16T02:04:17.067Z,96492.22
2023-11-16T02:06:44.528Z,96486.59
2023-11-16T02:09:11.795Z,96487.94
2023-11-16T02:11:38.582Z,96480.22
2023-11-16T02:14:05.702Z,96475.38
2023-11-16T02:16:32.632Z,96481.19
2023-11-16T02:19:17.354Z,96486.53
2023-11-16T02:21:46.470Z,96479.06
2023-11-16T02:24:13.922Z,96478.28
2023-11-16T02:26:43.482Z,96470.00
2023-11-16T02:29:11.092Z,96463.63
2023-11-16T02:31:38.920Z,96464.44
2023-11-16T02:34:07.286Z,96462.03
2023-11-16T02:36:34.174Z,96464.69
2023-11-16T02:39:01.768Z,96459.63
2023-11-16T02:41:30.511Z,96448.66
2023-11-16T02:43:57.220Z,96454.00
2023-11-16T02:46:23.899Z,96455.06
2023-11-16T02:48:50.550Z,96455.91
2023-11-16T02:51:17.331Z,96444.38
2023-11-16T02:53:44.823Z,96457.22
2023-11-16T02:56:14.472Z,96455.09
2023-11-16T02:58:45.135Z,96456.13
2023-11-16T03:01:14.329Z,96464.13
2023-11-16T03:03:41.768Z,96465.72
2023-11-16T03:06:10.074Z,96456.66
2023-11-16T03:08:37.055Z,96468.41
2023-11-16T03:11:06.931Z,96458.53
2023-11-16T03:13:33.787Z,96450.25
2023-11-16T03:16:01.714Z,96461.72
2023-11-16T03:18:28.436Z,96461.47
2023-11-16T03:20:55.134Z,96460.41
2023-11-16T03:23:21.791Z,96461.47
2023-11-16T03:25:48.439Z,96466.81
2023-11-16T03:28:15.169Z,96467.38
2023-11-16T03:30:42.005Z,96470.56
2023-11-16T03:33:13.686Z,96468.94
2023-11-16T03:35:40.705Z,96468.41
2023-11-16T03:38:07.400Z,96463.09
2023-11-16T03:40:34.289Z,96465.75
2023-11-16T03:43:00.935Z,96468.16
2023-11-16T03:45:28.133Z,96465.75
2023-11-16T03:47:54.732Z,96466.31
2023-11-16T03:50:21.436Z,96470.06
2023-11-16T03:52:48.072Z,96463.63
2023-11-16T03:55:14.827Z,96466.03
2023-11-16T03:57:41.711Z,96467.38
2023-11-16T04:00:09.675Z,96462.56
2023-11-16T04:02:37.257Z,96463.13
2023-11-16T04:05:06.404Z,96458.84
2023-11-16T04:07:36.074Z,96451.59
2023-11-16T04:10:05.550Z,96452.69
2023-11-16T04:12:32.473Z,96456.13
2023-11-16T04:14:59.196Z,96448.66
2023-11-16T04:17:27.594Z,96446.00
2023-11-16T04:19:54.567Z,96440.38
2023-11-16T04:22:23.365Z,96434.22
2023-11-16T04:24:53.119Z,96434.22
2023-11-16T04:27:21.831Z,96441.72
2023-11-16T04:29:48.917Z,96435.03
2023-11-16T04:32:15.569Z,96451.34
2023-11-16T04:34:43.514Z,96440.13
2023-11-16T04:37:11.850Z,96435.56
2023-11-16T04:39:38.641Z,96437.69
2023-11-16T04:42:05.706Z,96443.84
2023-11-16T04:44:35.599Z,96443.84
2023-11-16T04:47:02.588Z,96440.91
2023-11-16T04:49:29.378Z,96441.72
2023-11-16T04:51:56.042Z,96437.69
2023-11-16T04:54:22.971Z,96444.91
2023-11-16T04:56:49.727Z,96436.88
2023-11-16T04:59:16.389Z,96440.06
2023-11-16T05:01:43.057Z,96441.66
2023-11-16T05:04:10.121Z,96428.88
2023-11-16T05:06:42.987Z,96431.50
2023-11-16T05:09:09.871Z,96442.41
2023-11-16T05:11:36.884Z,96436.00
2023-11-16T05:14:05.160Z,96446.31
2023-11-16T05:16:31.884Z,96451.66
2023-11-16T05:18:58.583Z,96450.28
2023-11-16T05:21:25.334Z,96449.19
2023-11-16T05:23:52.004Z,96434.81
2023-11-16T05:26:18.646Z,96443.59
2023-11-16T05:28:45.339Z,96438.50
2023-11-16T05:31:12.546Z,96426.47
2023-11-16T05:33:39.581Z,96422.75
2023-11-16T05:36:07.446Z,96418.09
2023-11-16T05:38:34.192Z,96411.81
2023-11-16T05:41:00.945Z,96408.88
2023-11-16T05:43:27.651Z,96405.88
2023-11-16T05:45:54.522Z,96409.81
2023-11-16T05:48:21.303Z,96402.94
2023-11-16T05:50:48.110Z,96399.28
2023-11-16T05:53:15.096Z,96395.06
2023-11-16T05:55:41.796Z,96389.63
2023-11-16T05:58:08.492Z,96380.09
2023-11-16T06:00:38.563Z,96379.25
2023-11-16T06:03:06.778Z,96372.03
2023-11-16T06:05:35.125Z,96374.69
2023-11-16T06:08:02.003Z,96365.66
2023-11-16T06:10:28.922Z,96368.63
2023-11-16T06:12:59.132Z,96365.28
2023-11-16T06:15:32.075Z,96364.53
2023-11-16T06:18:03.927Z,96367.94
2023-11-16T06:20:31.168Z,96366.91
2023-11-16T06:22:58.073Z,96360.28
2023-11-16T06:25:24.869Z,96371.91
2023-11-16T06:27:51.821Z,96368.50
2023-11-16T06:30:19.682Z,96372.03
2023-11-16T06:32:46.576Z,96378.44
2023-11-16T06:35:13.369Z,96383.06
2023-11-16T06:37:40.067Z,96388.66
2023-11-16T06:40:10.242Z,96390.66
2023-11-16T06:42:38.931Z,96391.69
2023-11-16T06:45:07.696Z,96388.50
2023-11-16T06:47:36.055Z,96390.09
2023-11-16T06:50:06.360Z,96396.03
2023-11-16T06:52:34.164Z,96403.72
2023-11-16T06:55:01.744Z,96393.84
2023-11-16T06:57:28.759Z,96387.75
2023-11-16T06:59:55.573Z,96391.81
2023-11-16T07:02:23.646Z,96388.19
2023-11-16T07:04:50.546Z,96384.06
2023-11-16T07:07:18.404Z,96378.31
2023-11-16T07:09:47.484Z,96372.00
2023-11-16T07:12:16.676Z,96369.97
2023-11-16T07:14:51.190Z,96368.41
2023-11-16T07:17:20.988Z,96373.75
2023-11-16T07:19:49.134Z,96389.59
2023-11-16T07:22:15.833Z,96396.41
2023-11-16T07:24:45.803Z,96390.63
2023-11-16T07:27:13.576Z,96380.75
2023-11-16T07:29:44.442Z,96359.44
2023-11-16T07:32:12.696Z,96358.00
2023-11-16T07:34:40.913Z,96351.81
2023-11-16T07:37:08.197Z,96347.66
2023-11-16T07:39:35.702Z,96335.44
2023-11-16T07:42:02.386Z,96344.47
2023-11-16T07:44:29.017Z,96334.28
2023-11-16T07:46:55.880Z,96339.00
2023-11-16T07:49:24.310Z,96336.16
2023-11-16T07:51:52.381Z,96338.31
2023-11-16T07:54:19.160Z,96323.84
2023-11-16T07:56:56.263Z,96325.50
2023-11-16T07:59:32.087Z,96315.38
2023-11-16T08:02:02.157Z,96311.41
2023-11-16T08:04:31.011Z,96298.41
2023-11-16T08:06:59.604Z,96296.16
2023-11-16T08:09:30.674Z,96289.94
2023-11-16T08:11:58.662Z,96290.25
2023-11-16T08:14:26.989Z,96287.69
2023-11-16T08:16:58.240Z,96277.91
2023-11-16T08:19:28.478Z,96286.63
2023-11-16T08:21:58.509Z,96284.44
2023-11-16T08:24:27.473Z,96277.22
2023-11-16T08:26:57.424Z,96274.47
2023-11-16T08:29:25.122Z,96267.56
2023-11-16T08:31:55.478Z,96271.59
2023-11-16T08:34:25.296Z,96260.34
2023-11-16T08:36:52.313Z,96260.78
2023-11-16T08:39:19.539Z,96245.63
2023-11-16T08:41:46.520Z,96249.63
2023-11-16T08:44:13.903Z,96250.72
2023-11-16T08:46:47.230Z,96237.50
2023-11-16T08:49:13.984Z,96244.50
2023-11-16T08:51:40.688Z,96245.38
2023-11-16T08:54:10.198Z,96240.03
2023-11-16T08:56:41.718Z,96241.31
2023-11-16T08:59:10.546Z,96241.81
2023-11-16T09:01:39.647Z,96231.47
2023-11-16T09:04:07.899Z,96222.50
2023-11-16T09:06:35.430Z,96227.06
2023-11-16T09:09:10.514Z,96225.13
2023-11-16T09:11:37.519Z,96219.28
2023-11-16T09:14:05.576Z,96224.16
2023-11-16T09:16:33.222Z,96213.13
2023-11-16T09:19:00.989Z,96212.97
2023-11-16T09:21:30.719Z,96211.38
2023-11-16T09:23:57.715Z,96201.91
2023-11-16T09:26:25.613Z,96194.28
2023-11-16T09:29:01.396Z,96188.69
2023-11-16T09:31:34.964Z,96165.38
2023-11-16T09:34:02.107Z,96173.19
2023-11-16T09:36:29.021Z,96170.72
2023-11-16T09:38:59.164Z,96161.91
2023-11-16T09:41:29.931Z,96147.78
2023-11-16T09:44:03.317Z,96136.13
2023-11-16T09:46:32.837Z,96121.13
2023-11-16T09:49:00.700Z,96126.38
2023-11-16T09:51:30.550Z,96114.16
2023-11-16T09:54:02.540Z,96118.69
2023-11-16T09:56:36.590Z,96107.19
2023-11-16T09:59:26.623Z,96104.59
2023-11-16T10:02:09.048Z,96099.13
2023-11-16T10:04:36.527Z,96088.94
2023-11-16T10:07:06.612Z,96092.81
2023-11-16T10:09:43.224Z,96082.56
2023-11-16T10:12:10.467Z,96077.53
2023-11-16T10:14:53.669Z,96071.28
2023-11-16T10:17:26.619Z,96063.66
2023-11-16T10:19:53.641Z,96059.84
2023-11-16T10:22:20.354Z,96053.34
2023-11-16T10:24:51.104Z,96054.72
2023-11-16T10:27:18.718Z,96051.91
2023-11-16T10:29:45.428Z,96045.19
2023-11-16T10:32:13.382Z,96042.91
2023-11-16T10:34:41.276Z,96041.03
2023-11-16T10:37:11.224Z,96030.75
2023-11-16T10:39:39.094Z,96027.72
2023-11-16T10:42:07.698Z,96020.03
2023-11-16T10:44:35.266Z,96015.13
2023-11-16T10:47:02.735Z,96008.00
2023-11-16T10:49:30.495Z,96004.19
2023-11-16T10:52:02.420Z,96001.03
2023-11-16T10:54:33.761Z,96002.41
2023-11-16T10:57:00.716Z,95990.97
2023-11-16T10:59:28.814Z,95985.75
2023-11-16T11:01:58.377Z,95975.56
2023-11-16T11:04:27.011Z,95970.88
2023-11-16T11:06:56.442Z,95966.13
2023-11-16T11:09:40.249Z,95960.56
2023-11-16T11:12:14.298Z,95953.44
2023-11-16T11:14:48.021Z,95948.28
2023-11-16T11:17:21.749Z,95940.47
2023-11-16T11:19:56.229Z,95927.88
2023-11-16T11:22:32.873Z,95920.31
2023-11-16T11:25:03.350Z,95912.34
2023-11-16T11:27:32.077Z,95912.59
2023-11-16T11:30:13.041Z,95907.22
2023-11-16T11:32:53.384Z,95904.25
2023-11-16T11:35:27.364Z,95903.31
2023-11-16T11:37:54.015Z,95887.19
2023-11-16T11:40:29.720Z,95892.69
2023-11-16T11:42:56.374Z,95887.94
2023-11-16T11:45:23.183Z,95878.13
2023-11-16T11:47:50.571Z,95872.81
2023-11-16T11:50:20.603Z,95871.91
2023-11-16T11:52:49.079Z,95858.41
2023-11-16T11:55:15.959Z,95852.06
2023-11-16T11:57:42.887Z,95852.50
2023-11-16T12:00:14.304Z,95836.22
2023-11-16T12:02:42.812Z,95831.34
2023-11-16T12:05:18.282Z,95824.25
2023-11-16T12:07:59.695Z,95821.13
2023-11-16T12:10:26.481Z,95812.94
2023-11-16T12:12:57.768Z,95813.25
2023-11-16T12:15:25.163Z,95813.84
2023-11-16T12:17:51.995Z,95808.31
2023-11-16T12:20:18.815Z,95783.41
2023-11-16T12:22:45.499Z,95780.28
2023-11-16T12:25:14.991Z,95778.47
2023-11-16T12:27:44.319Z,95764.28
2023-11-16T12:30:20.503Z,95757.69
2023-11-16T12:32:47.428Z,95754.53
2023-11-16T12:35:15.747Z,95751.44
2023-11-16T12:37:44.047Z,95748.28
2023-11-16T12:40:21.723Z,95744.16
2023-11-16T12:42:53.877Z,95732.88
2023-11-16T12:45:21.858Z,95726.69
2023-11-16T12:47:49.253Z,95724.84
2023-11-16T12:50:17.301Z,95709.97
2023-11-16T12:52:43.996Z,95705.22
2023-11-16T12:55:13.856Z,95697.88
2023-11-16T12:57:47.569Z,95690.56
2023-11-16T13:00:18.770Z,95687.22
2023-11-16T13:02:46.840Z,95682.44
2023-11-16T13:05:16.457Z,95672.75
2023-11-16T13:07:43.365Z,95670.47
2023-11-16T13:10:11.301Z,95657.13
2023-11-16T13:12:38.933Z,95652.38
2023-11-16T13:15:07.633Z,95636.84
2023-11-16T13:17:34.980Z,95634.03
2023-11-16T13:20:01.777Z,95637.91
2023-11-16T13:22:29.018Z,95627.13
2023-11-16T13:24:55.684Z,95634.41
2023-11-16T13:27:28.709Z,95620.63
2023-11-16T13:30:04.599Z,95607.19
2023-11-16T13:32:31.952Z,95602.72
2023-11-16T13:34:58.682Z,95595.28
2023-11-16T13:37:26.557Z,95579.63
2023-11-16T13:39:55.188Z,95567.75
2023-11-16T13:42:22.009Z,95557.47
2023-11-16T13:44:48.691Z,95555.41
2023-11-16T13:47:16.048Z,95549.84
2023-11-16T13:49:43.814Z,95539.56
2023-11-16T13:52:10.553Z,95525.84
2023-11-16T13:54:37.255Z,95531.84
2023-11-16T13:57:04.726Z,95516.91
2023-11-16T13:59:31.903Z,95502.97
2023-11-16T14:01:58.632Z,95495.56
2023-11-16T14:04:25.368Z,95485.75
2023-11-16T14:06:52.092Z,95482.41
2023-11-16T14:09:21.565Z,95483.16
2023-11-16T14:11:49.119Z,95494.06
2023-11-16T14:14:15.766Z,95502.44
2023-11-16T14:16:42.821Z,95505.91
2023-11-16T14:19:09.572Z,95517.31
2023-11-16T14:21:36.382Z,95501.38
2023-11-16T14:24:09.432Z,95490.94
2023-11-16T14:26:37.943Z,95484.63
2023-11-16T14:29:04.646Z,95450.47
2023-11-16T14:31:31.431Z,95445.53
2023-11-16T14:33:58.169Z,95454.44
2023-11-16T14:36:24.963Z,95457.19
2023-11-16T14:38:51.718Z,95447.53
2023-11-16T14:41:18.492Z,95448.72
2023-11-16T14:43:45.267Z,95439.22
2023-11-16T14:46:12.097Z,95448.75
2023-11-16T14:48:39.084Z,95469.81
2023-11-16T14:51:06.134Z,95480.47
2023-11-16T14:53:34.817Z,95481.66
2023-11-16T14:56:03.512Z,95497.00
2023-11-16T14:58:31.183Z,95506.13
2023-11-16T15:00:59.305Z,95515.28
2023-11-16T15:03:26.499Z,95510.31
2023-11-16T15:05:53.116Z,95518.19
2023-11-16T15:08:19.849Z,95514.78
2023-11-16T15:10:46.866Z,95528.50
2023-11-16T15:13:14.402Z,95542.97
2023-11-16T15:15:41.343Z,95546.75
2023-11-16T15:18:08.082Z,95554.28
2023-11-16T15:20:36.724Z,95559.28
2023-11-16T15:23:03.552Z,95580.31
2023-11-16T15:25:30.214Z,95570.91
2023-11-16T15:27:57.157Z,95569.78
2023-11-16T15:30:24.105Z,95565.44
2023-11-16T15:32:54.363Z,95563.06
2023-11-16T15:35:21.561Z,95567.03
2023-11-16T15:37:50.074Z,95573.88
2023-11-16T15:40:16.946Z,95586.88
2023-11-16T15:42:43.718Z,95605.31
2023-11-16T15:45:13.566Z,95608.09
2023-11-16T15:47:40.431Z,95617.03
2023-11-16T15:50:07.680Z,95624.47
2023-11-16T15:52:34.418Z,95613.53
2023-11-16T15:55:01.304Z,95622.56
2023-11-16T15:57:29.882Z,95622.09
2023-11-16T16:00:00.370Z,95625.25
2023-11-16T16:02:31.390Z,95608.88
2023-11-16T16:05:01.058Z,95615.44
2023-11-16T16:07:28.346Z,95619.09
2023-11-16T16:09:55.226Z,95615.25
2023-11-16T16:12:22.237Z,95613.06
2023-11-16T16:14:48.882Z,95620.00
2023-11-16T16:17:15.736Z,95605.59
2023-11-16T16:19:42.712Z,95592.50
2023-11-16T16:22:09.566Z,95598.66
2023-11-16T16:24:36.733Z,95600.31
2023-11-16T16:27:08.797Z,95599.72
2023-11-16T16:29:36.630Z,95616.00
2023-11-16T16:32:05.289Z,95612.75
2023-11-16T16:34:32.189Z,95583.44
2023-11-16T16:36:58.864Z,95566.69
2023-11-16T16:39:25.521Z,95568.75
2023-11-16T16:41:53.358Z,95551.28
2023-11-16T16:44:20.824Z,95555.97
2023-11-16T16:46:48.916Z,95540.19
2023-11-16T16:49:18.853Z,95544.75
2023-11-16T16:51:45.974Z,95556.25
2023-11-16T16:54:17.569Z,95550.41
2023-11-16T16:56:46.347Z,95538.00
2023-11-16T16:59:15.977Z,95514.00
2023-11-16T17:01:43.576Z,95489.41
2023-11-16T17:04:10.788Z,95467.19
2023-11-16T17:06:38.276Z,95477.09
2023-11-16T17:09:05.147Z,95503.41
2023-11-16T17:11:31.815Z,95487.66
2023-11-16T17:13:58.757Z,95473.41
2023-11-16T17:16:28.347Z,95468.06
2023-11-16T17:18:55.781Z,95480.25
2023-11-16T17:21:22.810Z,95473.22
2023-11-16T17:23:52.486Z,95468.47
2023-11-16T17:26:20.950Z,95467.09
2023-11-16T17:28:49.660Z,95468.88
2023-11-16T17:31:18.397Z,95487.41
2023-11-16T17:33:45.625Z,95505.53
2023-11-16T17:36:12.583Z,95537.66
2023-11-16T17:38:39.339Z,95525.13
2023-11-16T17:41:06.857Z,95494.59
2023-11-16T17:43:39.732Z,95489.06
2023-11-16T17:46:08.281Z,95458.94
2023-11-16T17:48:35.657Z,95428.84
2023-11-16T17:51:03.931Z,95434.84
2023-11-16T17:53:30.671Z,95439.31
2023-11-16T17:55:57.950Z,95459.72
2023-11-16T17:58:25.406Z,95448.81
2023-11-16T18:00:52.227Z,95435.94
2023-11-16T18:03:19.175Z,95438.28
2023-11-16T18:05:45.923Z,95432.59
2023-11-16T18:08:13.201Z,95421.19
2023-11-16T18:10:45.005Z,95410.81
2023-11-16T18:13:18.256Z,95405.97
2023-11-16T18:15:45.487Z,95407.53
2023-11-16T18:18:12.479Z,95393.53
2023-11-16T18:20:40.378Z,95386.75
2023-11-16T18:23:09.264Z,95383.31
2023-11-16T18:25:41.228Z,95368.66
2023-11-16T18:28:14.053Z,95344.56
2023-11-16T18:30:46.777Z,95342.09
2023-11-16T18:33:15.461Z,95356.03
2023-11-16T18:35:42.663Z,95350.69
2023-11-16T18:38:12.181Z,95340.00
2023-11-16T18:40:41.156Z,95329.09
2023-11-16T18:43:10.414Z,95319.13
2023-11-16T18:45:37.120Z,95312.31
2023-11-16T18:48:13.119Z,95309.56
2023-11-16T18:50:41.491Z,95305.38
2023-11-16T18:53:09.354Z,95289.16
2023-11-16T18:55:37.310Z,95286.66
2023-11-16T18:58:04.152Z,95291.31
2023-11-16T19:00:31.263Z,95292.31
2023-11-16T19:03:09.108Z,95278.94
2023-11-16T19:05:35.820Z,95269.69
2023-11-16T19:08:02.604Z,95267.63
2023-11-16T19:10:31.848Z,95267.81
2023-11-16T19:12:58.705Z,95269.59
2023-11-16T19:15:26.491Z,95249.50
2023-11-16T19:17:54.217Z,95239.50
2023-11-16T19:20:24.710Z,95256.81
2023-11-16T19:22:53.040Z,95244.53
2023-11-16T19:25:22.782Z,95233.38
2023-11-16T19:27:49.443Z,95242.47
2023-11-16T19:30:16.619Z,95246.72
2023-11-16T19:32:47.604Z,95233.75
2023-11-16T19:35:17.277Z,95229.09
2023-11-16T19:37:44.015Z,95235.44
2023-11-16T19:40:22.970Z,95228.63
2023-11-16T19:42:59.775Z,95223.56
2023-11-16T19:45:26.521Z,95220.31
2023-11-16T19:47:53.188Z,95218.13
2023-11-16T19:50:19.992Z,95207.56
2023-11-16T19:52:46.648Z,95202.63
2023-11-16T19:55:15.431Z,95207.84
2023-11-16T19:57:42.590Z,95207.75
2023-11-16T20:00:10.341Z,95206.97
2023-11-16T20:02:37.350Z,95206.88
2023-11-16T20:05:06.663Z,95203.59
2023-11-16T20:07:33.959Z,95203.00
2023-11-16T20:10:00.819Z,95206.69
2023-11-16T20:12:27.654Z,95204.00
2023-11-16T20:14:57.696Z,95205.91
2023-11-16T20:17:27.590Z,95207.84
2023-11-16T20:19:55.534Z,95205.78
2023-11-16T20:22:22.234Z,95202.03
2023-11-16T20:24:49.147Z,95199.94
2023-11-16T20:27:16.129Z,95196.69
2023-11-16T20:29:43.127Z,95195.69
2023-11-16T20:32:10.330Z,95190.47
2023-11-16T20:34:37.392Z,95179.19
2023-11-16T20:37:06.476Z,95190.16
2023-11-16T20:39:34.036Z,95183.22
2023-11-16T20:42:00.830Z,95198.19
2023-11-16T20:44:28.449Z,95207.88
2023-11-16T20:46:55.877Z,95215.06
2023-11-16T20:49:22.868Z,95226.81
2023-11-16T20:51:49.941Z,95245.78
2023-11-16T20:54:16.688Z,95251.69
2023-11-16T20:56:43.375Z,95255.19
2023-11-16T20:59:10.676Z,95235.34
2023-11-16T21:01:37.242Z,95246.56
2023-11-16T21:04:05.766Z,95260.88
2023-11-16T21:06:36.472Z,95269.66
2023-11-16T21:09:10.619Z,95254.84
2023-11-16T21:11:38.365Z,95257.56
2023-11-16T21:14:05.633Z,95262.69
2023-11-16T21:16:32.664Z,95250.25
2023-11-16T21:18:59.629Z,95246.31
2023-11-16T21:21:26.940Z,95251.19
2023-11-16T21:23:53.596Z,95250.78
2023-11-16T21:26:20.814Z,95245.84
2023-11-16T21:28:47.389Z,95241.81
2023-11-16T21:31:14.246Z,95245.25
2023-11-16T21:33:40.958Z,95245.25
2023-11-16T21:36:09.630Z,95240.50
2023-11-16T21:38:36.333Z,95242.28
2023-11-16T21:41:03.262Z,95249.22
2023-11-16T21:43:29.927Z,95247.03
2023-11-16T21:45:56.747Z,95250.78
2023-11-16T21:48:23.423Z,95244.84
2023-11-16T21:50:50.041Z,95253.88
2023-11-16T21:53:19.857Z,95251.69
2023-11-16T21:55:47.860Z,95248.41
2023-11-16T21:58:14.695Z,95254.56
2023-11-16T22:00:41.625Z,95255.94
2023-11-16T22:03:09.065Z,95252.50
2023-11-16T22:05:35.812Z,95255.16
2023-11-16T22:08:02.458Z,95253.38
2023-11-16T22:10:29.117Z,95229.72
2023-11-16T22:12:55.871Z,95243.00
2023-11-16T22:15:22.623Z,95223.88
2023-11-16T22:17:50.891Z,95213.34
2023-11-16T22:20:18.491Z,95234.59
2023-11-16T22:22:47.425Z,95211.47
2023-11-16T22:25:14.755Z,95206.25
2023-11-16T22:27:43.753Z,95212.00
2023-11-16T22:30:12.218Z,95210.81
2023-11-16T22:32:42.564Z,95194.41
2023-11-16T22:35:11.752Z,95193.03
2023-11-16T22:37:42.523Z,95177.59
2023-11-16T22:40:11.387Z,95181.75
2023-11-16T22:42:38.994Z,95179.56
2023-11-16T22:45:06.715Z,95126.75
2023-11-16T22:47:33.431Z,95120.63
2023-11-16T22:50:00.293Z,95140.09
2023-11-16T22:52:27.150Z,95165.47
2023-11-16T22:54:54.140Z,95137.41
2023-11-16T22:57:20.898Z,95127.34
2023-11-16T22:59:47.559Z,95113.41
2023-11-16T23:02:14.340Z,95111.94
2023-11-16T23:04:43.348Z,95116.47
2023-11-16T23:07:14.967Z,95111.84
2023-11-16T23:09:43.369Z,95104.84
2023-11-16T23:12:10.324Z,95110.06
2023-11-16T23:14:37.543Z,95099.09
2023-11-16T23:17:10.730Z,95097.69
2023-11-16T23:19:40.847Z,95091.75
2023-11-16T23:22:14.528Z,95083.66
2023-11-16T23:24:45.774Z,95076.13
2023-11-16T23:27:13.962Z,95082.19
2023-11-16T23:29:41.697Z,95094.03
2023-11-16T23:32:08.885Z,95102.06
2023-11-16T23:34:36.593Z,95102.53
2023-11-16T23:37:03.757Z,95109.88
2023-11-16T23:39:30.933Z,95111.34
2023-11-16T23:42:01.417Z,95106.59
2023-11-16T23:44:28.269Z,95100.28
2023-11-16T23:46:56.090Z,95090.97
2023-11-16T23:49:23.634Z,95100.56
2023-11-16T23:51:51.504Z,95114.09
2023-11-16T23:54:18.229Z,95137.53
2023-11-16T23:56:45.028Z,95130.94
2023-11-16T23:59:13.514Z,95126.19
